x

Ilm2 - 5 Miles Se Of Wrightsville Beach, Nc (41038) Weather Station

12:08am - Thu 26th Apr 2018 All times are EDT. -4 hours from GMT.

  • Wind
    4mph, 7mph gusts
  • Sea Temp 63°f
  • Air Temp 64°f
  • Sea Pressure 1008.8mb
  • Ilm2 - 5 Miles Se Of Wrightsville Beach, Nc
  • Ilm2 - 5 Miles Se Of Wrightsville Beach, Nc

More Historic Weather Station data

Upgrade to MSW Pro to gain access to the past 30 days of data for over 8000 Wavebouys and Weather Stations around the globe.

Join

Comparision Forecast

View Surf forecast
   
Thu 04/26 12:08am 4 7 mph 1008.8mb 63f 64f
Wed 04/25 11:08pm 4 7 mph 1008.9mb 63f 65f
10:08pm 7 9 mph 1008.5mb 64f 65f
9:08pm 4 11 mph 1007.9mb 64f 67f
8:08pm 9 16 mph 1006.8mb 64f 66f
7:08pm 13 18 mph 1005.9mb 64f 65f
6:08pm 13 20 mph 1005.9mb 63f 66f
5:08pm 16 20 mph 1005.7mb 63f 66f
4:08pm 16 22 mph 1005.7mb 63f 66f
1:08pm 16 22 mph 1006.6mb 63f 65f
12:08pm 13 20 mph 1007.1mb 63f 64f
11:08am 11 16 mph 1007.2mb 63f 64f
10:08am 7 11 mph 1007.6mb 62f 64f
9:08am 11 18 mph 1007.8mb 62f 64f
8:08am 11 18 mph 1007.9mb 62f 64f
7:08am 9 16 mph 1007.4mb 62f 63f
6:08am 7 13 mph 1006.8mb 62f 63f
5:08am 9 13 mph 1006.7mb 62f 63f
4:08am 7 11 mph 1006.6mb 62f 63f
3:08am 11 16 mph 1007mb 62f 64f
2:08am 13 18 mph 1007.7mb 62f 64f
1:08am 11 18 mph 1008.5mb 62f 64f
12:08am 9 16 mph 1009.1mb 62f 64f
Tue 04/24 11:08pm 9 16 mph 1009.3mb 62f 64f
10:08pm 9 13 mph 1009.1mb 62f 64f
9:08pm 11 16 mph 1008.9mb 62f 65f
8:08pm 16 22 mph 1008.5mb 62f 66f
7:08pm 13 20 mph 1008.6mb 62f 66f
6:08pm 11 18 mph 1009.5mb 62f 66f
5:08pm 11 18 mph 1009.5mb 61f 63f
4:08pm 13 18 mph 1009.9mb 61f 62f
10:08am 13 22 mph 1013.7mb 61f 62f
9:08am 9 25 mph 1013.5mb 61f 62f
8:08am 20 34 mph 1013.4mb 61f 64f
7:08am 20 31 mph 1013.3mb 61f 64f
6:08am 18 29 mph 1014.3mb 61f 63f
5:08am 20 29 mph 1015.1mb 61f 64f
4:08am 20 29 mph 1015.5mb 61f 64f
3:08am 22 34 mph 1015.8mb 61f 63f
2:08am 22 34 mph 1016.9mb 61f 63f
1:08am 20 34 mph 1018mb 61f 64f
12:08am 20 29 mph 1018.5mb 61f 65f
Mon 04/23 11:08pm 22 31 mph 1018mb 61f 64f
10:08pm 20 27 mph 1018.5mb 61f 64f
9:08pm 20 29 mph 1021mb 61f 64f
8:08pm 20 29 mph 1020.9mb 61f 64f
7:08pm 16 22 mph 1021.6mb 61f 64f
6:08pm 20
mph
1021.8mb 61f 64f
5:08pm 16 22 mph 1022.9mb 61f 63f
4:08pm 16 20 mph 1023.6mb 61f 64f
3:08pm 13 20 mph 1024.4mb 61f 64f
2:08pm 13 20 mph 1024.5mb 61f 64f
1:08pm 16 22 mph 1025.1mb 61f 64f
12:08pm 13 20 mph 1025.6mb 61f 64f
11:08am 13 20 mph 1025mb 61f 64f
10:08am 13 20 mph 1024.2mb 61f 64f
9:08am 13 18 mph 1024.9mb 61f 64f
8:08am 11 16 mph 1024.7mb 61f 63f
7:08am 11 16 mph 1024.7mb 61f 63f
6:08am 9 13 mph 1024.6mb 61f 63f
5:08am 11 16 mph 1024.2mb 60f 63f
4:08am 13 18 mph 1023.8mb 60f 63f
3:08am 13 18 mph 1024mb 60f 63f
2:08am 9 13 mph 1025.3mb 60f 63f
1:08am 9 11 mph 1025.9mb 60f 63f
12:08am 11 16 mph 1026mb 60f 61f
Sun 04/22 11:08pm 11 16 mph 1026.5mb 60f 61f
9:08pm 13 18 mph 1026.3mb 61f 61f
8:08pm 11 18 mph 1026mb 61f 61f
7:08pm 13 18 mph 1025.9mb 61f 62f
6:08pm 13 18 mph 1026.1mb 61f 62f
5:08pm 13 18 mph 1025.9mb 61f 62f
4:08pm 13 18 mph 1026.3mb 61f 62f
3:08pm 13 18 mph 1027.1mb 61f 62f
2:08pm 13 20 mph 1027.3mb 61f 62f
1:08pm 13 18 mph 1027.7mb 61f 62f
12:08pm 11 16 mph 1028.2mb 61f 62f
10:08am 9 13 mph 1028.1mb 60f 62f
9:08am 9 13 mph 1027.8mb 60f 62f
8:08am 9 13 mph 1027.5mb 60f 62f
7:08am 9 13 mph 1027.1mb 60f 61f
6:08am 9 13 mph 1026.8mb 60f 61f